This is the latest recevied weather packets stored in our database for station/object KD4IZ-13. If no packets are shown the sender has not sent any weather packets the latest 10 day(s).
| Time | Temp. | Humidity | Pressure | Rain* | Wind** | Luminosity | Snow |
|---|---|---|---|---|---|---|---|
| 1777498866 | 13.33° C | 93% | 1010.6 hPa | 0 mm | - | 23 W/m² | - |
| 1777498563 | 13.89° C | 92% | 1010.4 hPa | 0 mm | - | 26 W/m² | - |
| 1777498259 | 13.89° C | 92% | 1010.2 hPa | 0 mm | - | 33 W/m² | - |
| 1777497957 | 13.89° C | 91% | 1010.2 hPa | 0 mm | - | 42 W/m² | - |
| 1777497653 | 13.89° C | 90% | 1010.2 hPa | 0 mm | - | 36 W/m² | - |
| 1777497350 | 13.89° C | 88% | 1010 hPa | 0 mm | - | 62 W/m² | - |
| 1777497045 | 13.89° C | 86% | 1010.2 hPa | 0 mm | - | 44 W/m² | - |
| 1777496743 | 13.89° C | 85% | 1009.9 hPa | 0 mm | - | 64 W/m² | - |
| 1777496439 | 13.89° C | 86% | 1010 hPa | 0 mm | - | 52 W/m² | - |
| 1777496136 | 13.89° C | 86% | 1010.2 hPa | 0 mm | - | 45 W/m² | - |
| 1777495832 | 13.89° C | 85% | 1010.5 hPa | 0 mm | - | 34 W/m² | - |
| 1777495528 | 13.89° C | 86% | 1010.3 hPa | 0 mm | - | 43 W/m² | - |
| 1777495224 | 13.89° C | 87% | 1010.3 hPa | 0 mm | - | 58 W/m² | - |
| 1777494921 | 13.89° C | 87% | 1010.5 hPa | 0 mm | - | 75 W/m² | - |
| 1777494619 | 13.89° C | 88% | 1010.6 hPa | 0 mm | - | 75 W/m² | - |
| 1777494316 | 13.89° C | 87% | 1010.5 hPa | 0 mm | - | 108 W/m² | - |
| 1777494012 | 13.89° C | 88% | 1010.3 hPa | 0 mm | - | 132 W/m² | - |
| 1777493710 | 13.89° C | 89% | 1010.5 hPa | 0 mm | - | 130 W/m² | - |
| 1777493408 | 13.33° C | 90% | 1010.8 hPa | 0 mm | - | 115 W/m² | - |
| 1777493103 | 13.33° C | 91% | 1010.9 hPa | 0 mm | - | 92 W/m² | - |
| 1777492800 | 13.33° C | 91% | 1011.2 hPa | 0 mm | - | 85 W/m² | - |
| 1777492496 | 13.33° C | 92% | 1011.3 hPa | 0 mm | - | 81 W/m² | - |
| 1777492193 | 13.33° C | 92% | 1011.4 hPa | 0 mm | - | 72 W/m² | - |
| 1777491890 | 13.33° C | 92% | 1011.5 hPa | 0 mm | - | 118 W/m² | - |
| 1777491586 | 13.33° C | 92% | 1011.6 hPa | 0 mm | - | 117 W/m² | - |
* Rain latest hour (hover to see other rain measurements)
** Current wind speed in m/s (hover to see current wind gust speed)